Terminal Aerodrome Forecast
Issued by NWS

Home | Current Version | Previous Version | Text Only | Print | Product List | Glossary On
Versions: 1 2 3 4 5 6 7 8 9 10 11 12 13 14 15
000
FTUS44 KLZK 291100
TAFHRO
TAF
KHRO 291120Z 2912/3012 VRB04KT P6SM SCT250
     FM291700 07006KT P6SM SCT040
     FM300000 VRB03KT P6SM SCT250
     FM300900 VRB03KT P6SM SCT150 BKN250=

USA.gov is the U.S. government's official web portal to all federal, state and local government web resources and services.